This is the latest recevied weather packets stored in our database for station/object HA5CD-6. If no packets are shown the sender has not sent any weather packets the latest 10 day(s).
| Time | Temp. | Humidity | Pressure | Rain* | Wind** | Luminosity | Snow |
|---|---|---|---|---|---|---|---|
| 1777407019 | 13.33° C | 39% | 996 hPa | - | - | - | - |
| 1777404618 | 14.44° C | 36% | 996 hPa | - | - | - | - |
| 1777403418 | 14.44° C | 37% | 996 hPa | - | - | - | - |
| 1777401018 | 15° C | 36% | 995 hPa | - | - | - | - |
| 1777397417 | 17.22° C | 31% | 995 hPa | - | - | - | - |
| 1777396817 | 20° C | 28% | 995 hPa | - | - | - | - |
| 1777396217 | 18.89° C | 29% | 995 hPa | - | - | - | - |
| 1777395617 | 19.44° C | 28% | 994 hPa | - | - | - | - |
| 1777393816 | 22.22° C | 24% | 994 hPa | - | - | - | - |
| 1777392628 | 23.33° C | 23% | 994 hPa | - | - | - | - |
| 1777391416 | 23.33° C | 22% | 995 hPa | - | - | - | - |
| 1777390816 | 25° C | 21% | 995 hPa | - | - | - | - |
| 1777390216 | 22.78° C | 24% | 995 hPa | - | - | - | - |
| 1777388415 | 23.33° C | 23% | 995 hPa | - | - | - | - |
| 1777384214 | 25.56° C | 21% | 995 hPa | - | - | - | - |
| 1777383614 | 23.89° C | 22% | 995 hPa | - | - | - | - |
| 1777383014 | 23.89° C | 21% | 996 hPa | - | - | - | - |
| 1777382414 | 22.78° C | 23% | 996 hPa | - | - | - | - |
| 1777381813 | 23.33° C | 22% | 996 hPa | - | - | - | - |
| 1777378812 | 23.33° C | 22% | 996 hPa | - | - | - | - |
| 1777378212 | 23.33° C | 22% | 996 hPa | - | - | - | - |
| 1777377612 | 23.89° C | 22% | 996 hPa | - | - | - | - |
| 1777377012 | 22.78° C | 22% | 996 hPa | - | - | - | - |
| 1777372211 | 22.22° C | 23% | 997 hPa | - | - | - | - |
| 1777371611 | 22.78° C | 25% | 997 hPa | - | - | - | - |
* Rain since midnight (hover to see other rain measurements)
** Current wind speed in m/s (hover to see current wind gust speed)